TNZ63 NZPM-NZCH
Flight info
| Callsign | TNZ63 |
|---|---|
| Flight time | 0h 47m |
| Altitude | 30000 |
| Route | ABTOL Y226 GURBO Y804 ATBUB H159 MESIX |
| Aircraft | B738/M-SDE2E3FGHIRWXY/LB1 |
Departure
| Time | 2026-05-04 22:48 |
|---|---|
| Airport | Palmerston North Airport (NZPM) |
Arrival
| Time | 2026-05-04 23:35 |
|---|---|
| Airport | Christchurch International Airport (NZCH) |
| Time | Latitude | Longitude | Altitude | Speed | Heading |
|---|---|---|---|---|---|
| 2026-05-04 22:11 | -40.32352 | 175.61954 | 134 ft | 0 kts | 180° |
| 2026-05-04 22:42 | -40.32354 | 175.61957 | 135 ft | 1 kts | 145° |
| 2026-05-04 22:42 | -40.32351 | 175.61965 | 138 ft | 1 kts | 62° |
| 2026-05-04 22:42 | -40.32337 | 175.61960 | 134 ft | 4 kts | 341° |
| 2026-05-04 22:42 | -40.32316 | 175.61955 | 135 ft | 6 kts | 355° |
| 2026-05-04 22:43 | -40.32260 | 175.61954 | 137 ft | 10 kts | 359° |
| 2026-05-04 22:43 | -40.32185 | 175.61953 | 136 ft | 0 kts | 359° |
| 2026-05-04 22:43 | -40.32183 | 175.61953 | 136 ft | 2 kts | 359° |
| 2026-05-04 22:44 | -40.32142 | 175.61952 | 137 ft | 10 kts | 359° |
| 2026-05-04 22:44 | -40.32059 | 175.61951 | 134 ft | 13 kts | 359° |
| 2026-05-04 22:44 | -40.31991 | 175.61895 | 136 ft | 14 kts | 280° |
| 2026-05-04 22:44 | -40.31988 | 175.61748 | 134 ft | 18 kts | 270° |
| 2026-05-04 22:45 | -40.31989 | 175.61504 | 135 ft | 21 kts | 269° |
| 2026-05-04 22:45 | -40.31991 | 175.61195 | 134 ft | 20 kts | 269° |
| 2026-05-04 22:45 | -40.31991 | 175.61018 | 138 ft | 19 kts | 270° |
| 2026-05-04 22:46 | -40.31990 | 175.60837 | 137 ft | 21 kts | 270° |
| 2026-05-04 22:46 | -40.31990 | 175.60634 | 140 ft | 22 kts | 270° |
| 2026-05-04 22:46 | -40.31991 | 175.60435 | 138 ft | 13 kts | 268° |
| 2026-05-04 22:46 | -40.32009 | 175.60351 | 136 ft | 5 kts | 284° |
| 2026-05-04 22:47 | -40.31988 | 175.60357 | 134 ft | 3 kts | 83° |
| 2026-05-04 22:47 | -40.31989 | 175.60363 | 134 ft | 2 kts | 92° |
| 2026-05-04 22:47 | -40.31989 | 175.60615 | 137 ft | 65 kts | 89° |
| 2026-05-04 22:47 | -40.31989 | 175.61543 | 134 ft | 136 kts | 89° |
| 2026-05-04 22:48 | -40.31996 | 175.62982 | 430 ft | 168 kts | 89° |
| 2026-05-04 22:48 | -40.32027 | 175.64564 | 1222 ft | 172 kts | 88° |
| 2026-05-04 22:48 | -40.32062 | 175.66148 | 2034 ft | 180 kts | 90° |
| 2026-05-04 22:48 | -40.32104 | 175.67852 | 2671 ft | 192 kts | 90° |
| 2026-05-04 22:49 | -40.32149 | 175.69646 | 3336 ft | 203 kts | 91° |
| 2026-05-04 22:49 | -40.32196 | 175.71526 | 4088 ft | 208 kts | 91° |
| 2026-05-04 22:49 | -40.32245 | 175.73416 | 4910 ft | 210 kts | 92° |
| 2026-05-04 22:49 | -40.32295 | 175.75332 | 5686 ft | 209 kts | 94° |
| 2026-05-04 22:50 | -40.32722 | 175.77133 | 6327 ft | 210 kts | 128° |
| 2026-05-04 22:50 | -40.33902 | 175.78311 | 6697 ft | 224 kts | 164° |
| 2026-05-04 22:50 | -40.35442 | 175.78733 | 7339 ft | 228 kts | 171° |
| 2026-05-04 22:50 | -40.37012 | 175.79090 | 8040 ft | 230 kts | 172° |
| 2026-05-04 22:51 | -40.38578 | 175.79452 | 8774 ft | 232 kts | 172° |
| 2026-05-04 22:51 | -40.40168 | 175.79826 | 9496 ft | 233 kts | 172° |
| 2026-05-04 22:51 | -40.41815 | 175.80055 | 9892 ft | 247 kts | 189° |
| 2026-05-04 22:51 | -40.43476 | 175.79208 | 9991 ft | 269 kts | 212° |
| 2026-05-04 22:52 | -40.45057 | 175.77845 | 9977 ft | 272 kts | 214° |
| 2026-05-04 22:52 | -40.46611 | 175.76441 | 9961 ft | 270 kts | 215° |
| 2026-05-04 22:52 | -40.48155 | 175.75047 | 9965 ft | 268 kts | 214° |
| 2026-05-04 22:52 | -40.49690 | 175.73671 | 9960 ft | 265 kts | 214° |
| 2026-05-04 22:53 | -40.51205 | 175.72320 | 9961 ft | 261 kts | 214° |
| 2026-05-04 22:53 | -40.52720 | 175.70979 | 9976 ft | 264 kts | 214° |
| 2026-05-04 22:53 | -40.54254 | 175.69625 | 9970 ft | 266 kts | 214° |
| 2026-05-04 22:53 | -40.55798 | 175.68263 | 9976 ft | 269 kts | 214° |
| 2026-05-04 22:54 | -40.57357 | 175.66890 | 9972 ft | 270 kts | 214° |
| 2026-05-04 22:54 | -40.58925 | 175.65533 | 9964 ft | 270 kts | 211° |
| 2026-05-04 22:54 | -40.60604 | 175.64383 | 10063 ft | 284 kts | 206° |
| 2026-05-04 22:54 | -40.62479 | 175.63231 | 10235 ft | 310 kts | 205° |
| 2026-05-04 22:55 | -40.64512 | 175.62001 | 10441 ft | 331 kts | 205° |
| 2026-05-04 22:55 | -40.66642 | 175.60702 | 10929 ft | 341 kts | 205° |
| 2026-05-04 22:55 | -40.68803 | 175.59372 | 11614 ft | 344 kts | 206° |
| 2026-05-04 22:55 | -40.70984 | 175.58016 | 12237 ft | 350 kts | 206° |
| 2026-05-04 22:56 | -40.73206 | 175.56627 | 12887 ft | 355 kts | 206° |
| 2026-05-04 22:56 | -40.75447 | 175.55221 | 13586 ft | 359 kts | 206° |
| 2026-05-04 22:56 | -40.77721 | 175.53792 | 14291 ft | 364 kts | 207° |
| 2026-05-04 22:56 | -40.80025 | 175.52342 | 14918 ft | 369 kts | 207° |
| 2026-05-04 22:57 | -40.82357 | 175.50879 | 15609 ft | 372 kts | 206° |
| 2026-05-04 22:57 | -40.84712 | 175.49410 | 16276 ft | 377 kts | 206° |
| 2026-05-04 22:57 | -40.87103 | 175.47919 | 16932 ft | 381 kts | 206° |
| 2026-05-04 22:57 | -40.89518 | 175.46411 | 17595 ft | 385 kts | 206° |
| 2026-05-04 22:58 | -40.91957 | 175.44887 | 18253 ft | 390 kts | 206° |
| 2026-05-04 22:58 | -40.94392 | 175.43363 | 18889 ft | 394 kts | 206° |
| 2026-05-04 22:58 | -40.96878 | 175.41803 | 19479 ft | 397 kts | 206° |
| 2026-05-04 22:58 | -40.99381 | 175.40232 | 20081 ft | 400 kts | 206° |
| 2026-05-04 22:59 | -41.01886 | 175.38596 | 20671 ft | 402 kts | 210° |
| 2026-05-04 22:59 | -41.04262 | 175.36605 | 21241 ft | 405 kts | 214° |
| 2026-05-04 22:59 | -41.06593 | 175.34483 | 21810 ft | 408 kts | 216° |
| 2026-05-04 22:59 | -41.08929 | 175.32309 | 22357 ft | 412 kts | 216° |
| 2026-05-04 23:00 | -41.11282 | 175.30117 | 22906 ft | 415 kts | 216° |
| 2026-05-04 23:00 | -41.13653 | 175.27919 | 23440 ft | 418 kts | 215° |
| 2026-05-04 23:00 | -41.16048 | 175.25713 | 23969 ft | 420 kts | 215° |
| 2026-05-04 23:00 | -41.18463 | 175.23499 | 24414 ft | 424 kts | 215° |
| 2026-05-04 23:01 | -41.20896 | 175.21274 | 24847 ft | 426 kts | 215° |
| 2026-05-04 23:01 | -41.23345 | 175.19038 | 25284 ft | 428 kts | 215° |
| 2026-05-04 23:01 | -41.25808 | 175.16788 | 25712 ft | 431 kts | 214° |
| 2026-05-04 23:01 | -41.28284 | 175.14526 | 26124 ft | 433 kts | 214° |
| 2026-05-04 23:02 | -41.30773 | 175.12248 | 26522 ft | 436 kts | 214° |
| 2026-05-04 23:02 | -41.33278 | 175.09954 | 26909 ft | 438 kts | 214° |
| 2026-05-04 23:02 | -41.35778 | 175.07662 | 27298 ft | 441 kts | 214° |
| 2026-05-04 23:02 | -41.38309 | 175.05339 | 27694 ft | 443 kts | 214° |
| 2026-05-04 23:03 | -41.40851 | 175.03004 | 28085 ft | 445 kts | 214° |
| 2026-05-04 23:03 | -41.43372 | 175.00686 | 28462 ft | 446 kts | 214° |
| 2026-05-04 23:03 | -41.45934 | 174.98327 | 28958 ft | 446 kts | 214° |
| 2026-05-04 23:03 | -41.48477 | 174.95984 | 29493 ft | 443 kts | 214° |
| 2026-05-04 23:04 | -41.51012 | 174.93646 | 30063 ft | 441 kts | 214° |
| 2026-05-04 23:04 | -41.53533 | 174.91318 | 30492 ft | 441 kts | 214° |
| 2026-05-04 23:04 | -41.58613 | 174.86622 | 30482 ft | 445 kts | 214° |
| 2026-05-04 23:05 | -41.63669 | 174.81937 | 30467 ft | 438 kts | 214° |
| 2026-05-04 23:05 | -41.68653 | 174.77311 | 30470 ft | 439 kts | 214° |
| 2026-05-04 23:06 | -41.73679 | 174.72636 | 30465 ft | 440 kts | 214° |
| 2026-05-04 23:06 | -41.78715 | 174.67943 | 30456 ft | 440 kts | 214° |
| 2026-05-04 23:07 | -41.83745 | 174.63251 | 30458 ft | 440 kts | 214° |
| 2026-05-04 23:07 | -41.88769 | 174.58558 | 30447 ft | 440 kts | 214° |
| 2026-05-04 23:08 | -41.93787 | 174.53860 | 30445 ft | 439 kts | 214° |
| 2026-05-04 23:08 | -41.98797 | 174.49162 | 30440 ft | 439 kts | 214° |
| 2026-05-04 23:09 | -42.03768 | 174.44489 | 30436 ft | 439 kts | 214° |
| 2026-05-04 23:09 | -42.08772 | 174.39777 | 30434 ft | 438 kts | 214° |
| 2026-05-04 23:10 | -42.13746 | 174.35084 | 30432 ft | 438 kts | 214° |
| 2026-05-04 23:10 | -42.18729 | 174.30372 | 30427 ft | 437 kts | 214° |
| 2026-05-04 23:11 | -42.23708 | 174.25656 | 30426 ft | 437 kts | 214° |
| 2026-05-04 23:11 | -42.28690 | 174.20928 | 30429 ft | 438 kts | 214° |
| 2026-05-04 23:12 | -42.33655 | 174.16206 | 30417 ft | 433 kts | 214° |
| 2026-05-04 23:12 | -42.38523 | 174.11567 | 30433 ft | 430 kts | 214° |
| 2026-05-04 23:13 | -42.43442 | 174.06872 | 29986 ft | 431 kts | 215° |
| 2026-05-04 23:13 | -42.45869 | 174.04552 | 29495 ft | 425 kts | 215° |
| 2026-05-04 23:13 | -42.48264 | 174.02259 | 29035 ft | 419 kts | 215° |
| 2026-05-04 23:14 | -42.50634 | 173.99989 | 28561 ft | 414 kts | 215° |
| 2026-05-04 23:14 | -42.52972 | 173.97747 | 28060 ft | 410 kts | 215° |
| 2026-05-04 23:14 | -42.55291 | 173.95521 | 27573 ft | 406 kts | 215° |
| 2026-05-04 23:14 | -42.57556 | 173.93346 | 27109 ft | 403 kts | 215° |
| 2026-05-04 23:15 | -42.59833 | 173.91156 | 26644 ft | 399 kts | 215° |
| 2026-05-04 23:15 | -42.62094 | 173.88981 | 26174 ft | 396 kts | 215° |
| 2026-05-04 23:15 | -42.64336 | 173.86821 | 25721 ft | 393 kts | 215° |
| 2026-05-04 23:15 | -42.66563 | 173.84674 | 25253 ft | 391 kts | 215° |
| 2026-05-04 23:16 | -42.68773 | 173.82541 | 24810 ft | 388 kts | 215° |
| 2026-05-04 23:16 | -42.70972 | 173.80417 | 24354 ft | 386 kts | 215° |
| 2026-05-04 23:16 | -42.73162 | 173.78301 | 23857 ft | 385 kts | 216° |
| 2026-05-04 23:16 | -42.75343 | 173.76190 | 23338 ft | 383 kts | 216° |
| 2026-05-04 23:17 | -42.77505 | 173.74096 | 22858 ft | 380 kts | 216° |
| 2026-05-04 23:17 | -42.79650 | 173.72017 | 22393 ft | 377 kts | 216° |
| 2026-05-04 23:17 | -42.81777 | 173.69953 | 21944 ft | 374 kts | 216° |
| 2026-05-04 23:17 | -42.83861 | 173.67929 | 21500 ft | 371 kts | 216° |
| 2026-05-04 23:18 | -42.85955 | 173.65895 | 21061 ft | 369 kts | 216° |
| 2026-05-04 23:18 | -42.88038 | 173.63869 | 20625 ft | 366 kts | 216° |
| 2026-05-04 23:18 | -42.90105 | 173.61856 | 20191 ft | 364 kts | 217° |
| 2026-05-04 23:18 | -42.92029 | 173.59622 | 19750 ft | 362 kts | 226° |
| 2026-05-04 23:19 | -42.93632 | 173.56987 | 19304 ft | 360 kts | 233° |
| 2026-05-04 23:19 | -42.95123 | 173.54247 | 18859 ft | 359 kts | 234° |
| 2026-05-04 23:19 | -42.96592 | 173.51499 | 18400 ft | 357 kts | 235° |
| 2026-05-04 23:19 | -42.98055 | 173.48767 | 17926 ft | 355 kts | 234° |
| 2026-05-04 23:20 | -42.99515 | 173.46059 | 17484 ft | 353 kts | 234° |
| 2026-05-04 23:20 | -43.00971 | 173.43372 | 17058 ft | 350 kts | 234° |
| 2026-05-04 23:20 | -43.02417 | 173.40712 | 16634 ft | 348 kts | 234° |
| 2026-05-04 23:20 | -43.03855 | 173.38069 | 16216 ft | 345 kts | 234° |
| 2026-05-04 23:21 | -43.05285 | 173.35441 | 15807 ft | 343 kts | 234° |
| 2026-05-04 23:21 | -43.06701 | 173.32839 | 15395 ft | 340 kts | 234° |
| 2026-05-04 23:21 | -43.08110 | 173.30246 | 14993 ft | 338 kts | 234° |
| 2026-05-04 23:21 | -43.09491 | 173.27703 | 14594 ft | 336 kts | 234° |
| 2026-05-04 23:22 | -43.10885 | 173.25134 | 14178 ft | 335 kts | 234° |
| 2026-05-04 23:22 | -43.12268 | 173.22585 | 13745 ft | 332 kts | 234° |
| 2026-05-04 23:22 | -43.13643 | 173.20055 | 13331 ft | 329 kts | 234° |
| 2026-05-04 23:22 | -43.15003 | 173.17548 | 12921 ft | 327 kts | 234° |
| 2026-05-04 23:23 | -43.16353 | 173.15059 | 12522 ft | 324 kts | 234° |
| 2026-05-04 23:23 | -43.17693 | 173.12585 | 12128 ft | 322 kts | 234° |
| 2026-05-04 23:23 | -43.19023 | 173.10127 | 11729 ft | 320 kts | 234° |
| 2026-05-04 23:23 | -43.20347 | 173.07677 | 11335 ft | 318 kts | 234° |
| 2026-05-04 23:24 | -43.21660 | 173.05247 | 11018 ft | 314 kts | 234° |
| 2026-05-04 23:24 | -43.22941 | 173.02876 | 10881 ft | 304 kts | 234° |
| 2026-05-04 23:24 | -43.24181 | 173.00578 | 10744 ft | 295 kts | 234° |
| 2026-05-04 23:24 | -43.25336 | 172.98436 | 10619 ft | 287 kts | 234° |
| 2026-05-04 23:25 | -43.26549 | 172.96428 | 10496 ft | 279 kts | 227° |
| 2026-05-04 23:25 | -43.27933 | 172.94597 | 10306 ft | 275 kts | 224° |
| 2026-05-04 23:25 | -43.29340 | 172.92830 | 10010 ft | 273 kts | 224° |
| 2026-05-04 23:25 | -43.30741 | 172.91074 | 9718 ft | 272 kts | 224° |
| 2026-05-04 23:26 | -43.32127 | 172.89321 | 9433 ft | 270 kts | 224° |
| 2026-05-04 23:26 | -43.33500 | 172.87568 | 9144 ft | 269 kts | 224° |
| 2026-05-04 23:26 | -43.34863 | 172.85816 | 8859 ft | 268 kts | 224° |
| 2026-05-04 23:26 | -43.36218 | 172.84066 | 8537 ft | 268 kts | 224° |
| 2026-05-04 23:27 | -43.37579 | 172.82303 | 8204 ft | 269 kts | 224° |
| 2026-05-04 23:27 | -43.38938 | 172.80540 | 7926 ft | 268 kts | 224° |
| 2026-05-04 23:27 | -43.40294 | 172.78778 | 7639 ft | 267 kts | 224° |
| 2026-05-04 23:27 | -43.41641 | 172.77025 | 7355 ft | 267 kts | 224° |
| 2026-05-04 23:28 | -43.42986 | 172.75274 | 7072 ft | 266 kts | 224° |
| 2026-05-04 23:28 | -43.44330 | 172.73522 | 6790 ft | 265 kts | 224° |
| 2026-05-04 23:28 | -43.45668 | 172.71779 | 6503 ft | 264 kts | 224° |
| 2026-05-04 23:28 | -43.47057 | 172.70121 | 6226 ft | 263 kts | 220° |
| 2026-05-04 23:29 | -43.48474 | 172.68532 | 5951 ft | 263 kts | 220° |
| 2026-05-04 23:29 | -43.49871 | 172.66969 | 5671 ft | 262 kts | 220° |
| 2026-05-04 23:29 | -43.51280 | 172.65382 | 5400 ft | 261 kts | 220° |
| 2026-05-04 23:29 | -43.52678 | 172.63797 | 5125 ft | 259 kts | 220° |
| 2026-05-04 23:30 | -43.54061 | 172.62226 | 4891 ft | 252 kts | 220° |
| 2026-05-04 23:30 | -43.55396 | 172.60707 | 4641 ft | 247 kts | 220° |
| 2026-05-04 23:30 | -43.56722 | 172.59196 | 4286 ft | 247 kts | 220° |
| 2026-05-04 23:30 | -43.58042 | 172.57690 | 3954 ft | 246 kts | 220° |
| 2026-05-04 23:31 | -43.58918 | 172.56692 | 3741 ft | 246 kts | 220° |
| 2026-05-04 23:31 | -43.60164 | 172.55096 | 3398 ft | 244 kts | 232° |
| 2026-05-04 23:31 | -43.60997 | 172.53084 | 3072 ft | 241 kts | 253° |
| 2026-05-04 23:31 | -43.61226 | 172.50827 | 2758 ft | 238 kts | 274° |
| 2026-05-04 23:32 | -43.60853 | 172.48629 | 2437 ft | 235 kts | 294° |
| 2026-05-04 23:32 | -43.59604 | 172.46254 | 2136 ft | 227 kts | 320° |
| 2026-05-04 23:32 | -43.58724 | 172.45470 | 2048 ft | 219 kts | 336° |
| 2026-05-04 23:32 | -43.57268 | 172.44974 | 1732 ft | 217 kts | 358° |
| 2026-05-04 23:33 | -43.55823 | 172.45302 | 1612 ft | 203 kts | 22° |
| 2026-05-04 23:33 | -43.54676 | 172.46316 | 1319 ft | 199 kts | 43° |
| 2026-05-04 23:33 | -43.53654 | 172.47615 | 960 ft | 197 kts | 44° |
| 2026-05-04 23:33 | -43.52690 | 172.48878 | 695 ft | 184 kts | 42° |
| 2026-05-04 23:34 | -43.51782 | 172.49984 | 581 ft | 164 kts | 40° |
| 2026-05-04 23:34 | -43.50941 | 172.50916 | 409 ft | 144 kts | 35° |
| 2026-05-04 23:34 | -43.50178 | 172.51721 | 232 ft | 134 kts | 39° |
| 2026-05-04 23:34 | -43.49461 | 172.52557 | 134 ft | 133 kts | 40° |
| 2026-05-04 23:35 | -43.48848 | 172.53268 | 112 ft | 86 kts | 40° |
| 2026-05-04 23:35 | -43.48572 | 172.53587 | 109 ft | 14 kts | 40° |
| 2026-05-04 23:35 | -43.48511 | 172.53697 | 108 ft | 15 kts | 72° |
| 2026-05-04 23:35 | -43.48480 | 172.53832 | 106 ft | 14 kts | 72° |
| 2026-05-04 23:36 | -43.48472 | 172.53961 | 106 ft | 14 kts | 131° |
| 2026-05-04 23:36 | -43.48555 | 172.53936 | 106 ft | 14 kts | 221° |
| 2026-05-04 23:36 | -43.48624 | 172.53857 | 106 ft | 13 kts | 219° |
| 2026-05-04 23:36 | -43.49644 | 172.53909 | 107 ft | 0 kts | 129° |